sensor_id;sensor_type;location;lat;lon;timestamp;temperature;humidity
52127;DHT22;38120;53.176;6.614;2023-04-15T00:01:19;6.00;99.90
52127;DHT22;38120;53.176;6.614;2023-04-15T00:03:45;6.00;99.90
52127;DHT22;38120;53.176;6.614;2023-04-15T00:06:12;6.00;99.90
52127;DHT22;38120;53.176;6.614;2023-04-15T00:08:38;6.00;99.90
52127;DHT22;38120;53.176;6.614;2023-04-15T00:11:04;6.00;99.90
52127;DHT22;38120;53.176;6.614;2023-04-15T00:13:31;6.00;99.90
52127;DHT22;38120;53.176;6.614;2023-04-15T00:15:58;6.10;99.90
52127;DHT22;38120;53.176;6.614;2023-04-15T00:18:24;6.10;99.90
52127;DHT22;38120;53.176;6.614;2023-04-15T00:20:50;6.10;99.90
52127;DHT22;38120;53.176;6.614;2023-04-15T00:23:17;6.10;99.90
52127;DHT22;38120;53.176;6.614;2023-04-15T00:25:42;6.10;99.90
52127;DHT22;38120;53.176;6.614;2023-04-15T00:28:08;6.10;99.90
52127;DHT22;38120;53.176;6.614;2023-04-15T00:30:34;6.20;99.90
52127;DHT22;38120;53.176;6.614;2023-04-15T00:33:00;6.10;99.90
52127;DHT22;38120;53.176;6.614;2023-04-15T00:35:29;6.10;99.90
52127;DHT22;38120;53.176;6.614;2023-04-15T00:37:57;6.10;99.90
52127;DHT22;38120;53.176;6.614;2023-04-15T00:40:23;6.10;99.90
52127;DHT22;38120;53.176;6.614;2023-04-15T00:42:49;6.20;99.90
52127;DHT22;38120;53.176;6.614;2023-04-15T00:45:15;6.10;99.90
52127;DHT22;38120;53.176;6.614;2023-04-15T00:47:42;6.20;99.90
52127;DHT22;38120;53.176;6.614;2023-04-15T00:50:09;6.10;99.90
52127;DHT22;38120;53.176;6.614;2023-04-15T00:52:35;6.10;99.90
52127;DHT22;38120;53.176;6.614;2023-04-15T00:55:01;6.10;99.90
52127;DHT22;38120;53.176;6.614;2023-04-15T00:57:29;6.10;99.90
52127;DHT22;38120;53.176;6.614;2023-04-15T00:59:55;6.10;99.90
52127;DHT22;38120;53.176;6.614;2023-04-15T01:02:22;6.10;99.90
52127;DHT22;38120;53.176;6.614;2023-04-15T01:04:48;6.10;99.90
52127;DHT22;38120;53.176;6.614;2023-04-15T01:07:14;6.10;99.90
52127;DHT22;38120;53.176;6.614;2023-04-15T01:09:40;6.10;99.90
52127;DHT22;38120;53.176;6.614;2023-04-15T01:12:07;6.00;99.90
52127;DHT22;38120;53.176;6.614;2023-04-15T01:14:35;5.90;99.90
52127;DHT22;38120;53.176;6.614;2023-04-15T01:17:00;5.90;99.90
52127;DHT22;38120;53.176;6.614;2023-04-15T01:19:27;5.80;99.90
52127;DHT22;38120;53.176;6.614;2023-04-15T01:21:53;5.80;99.90
52127;DHT22;38120;53.176;6.614;2023-04-15T01:24:19;5.80;99.90
52127;DHT22;38120;53.176;6.614;2023-04-15T01:26:46;5.80;99.90
52127;DHT22;38120;53.176;6.614;2023-04-15T01:29:13;5.70;99.90
52127;DHT22;38120;53.176;6.614;2023-04-15T01:31:39;5.60;99.90
52127;DHT22;38120;53.176;6.614;2023-04-15T01:34:05;5.60;99.90
52127;DHT22;38120;53.176;6.614;2023-04-15T01:36:31;5.60;99.90
52127;DHT22;38120;53.176;6.614;2023-04-15T01:38:57;5.60;99.90
52127;DHT22;38120;53.176;6.614;2023-04-15T01:41:27;5.50;99.90
52127;DHT22;38120;53.176;6.614;2023-04-15T01:43:53;5.50;99.90
52127;DHT22;38120;53.176;6.614;2023-04-15T01:46:19;5.40;99.90
52127;DHT22;38120;53.176;6.614;2023-04-15T01:48:45;5.40;99.90
52127;DHT22;38120;53.176;6.614;2023-04-15T01:51:11;5.40;99.90
52127;DHT22;38120;53.176;6.614;2023-04-15T01:53:37;5.30;99.90
52127;DHT22;38120;53.176;6.614;2023-04-15T01:56:03;5.30;99.90
52127;DHT22;38120;53.176;6.614;2023-04-15T01:58:29;5.30;99.90
52127;DHT22;38120;53.176;6.614;2023-04-15T02:00:54;5.30;99.90
52127;DHT22;38120;53.176;6.614;2023-04-15T02:03:20;5.20;99.90
52127;DHT22;38120;53.176;6.614;2023-04-15T02:05:46;5.10;99.90
52127;DHT22;38120;53.176;6.614;2023-04-15T02:08:11;5.20;99.90
52127;DHT22;38120;53.176;6.614;2023-04-15T02:10:38;5.10;99.90
52127;DHT22;38120;53.176;6.614;2023-04-15T02:13:04;5.10;99.90
52127;DHT22;38120;53.176;6.614;2023-04-15T02:15:29;5.10;99.90
52127;DHT22;38120;53.176;6.614;2023-04-15T02:17:55;5.10;99.90
52127;DHT22;38120;53.176;6.614;2023-04-15T02:20:21;5.10;99.90
52127;DHT22;38120;53.176;6.614;2023-04-15T02:22:48;6.10;99.90
52127;DHT22;38120;53.176;6.614;2023-04-15T02:25:14;5.00;99.90
52127;DHT22;38120;53.176;6.614;2023-04-15T02:27:41;4.90;99.90
52127;DHT22;38120;53.176;6.614;2023-04-15T02:30:09;4.90;99.90
52127;DHT22;38120;53.176;6.614;2023-04-15T02:32:34;4.80;99.90
52127;DHT22;38120;53.176;6.614;2023-04-15T02:35:06;4.70;99.90
52127;DHT22;38120;53.176;6.614;2023-04-15T02:37:35;4.80;99.90
52127;DHT22;38120;53.176;6.614;2023-04-15T02:40:07;4.70;99.90
52127;DHT22;38120;53.176;6.614;2023-04-15T02:42:33;4.70;99.90
52127;DHT22;38120;53.176;6.614;2023-04-15T02:44:59;4.90;99.90
52127;DHT22;38120;53.176;6.614;2023-04-15T02:47:25;4.50;99.90
52127;DHT22;38120;53.176;6.614;2023-04-15T02:49:51;4.50;99.90
52127;DHT22;38120;53.176;6.614;2023-04-15T02:52:17;4.50;99.90
52127;DHT22;38120;53.176;6.614;2023-04-15T02:54:43;4.50;99.90
52127;DHT22;38120;53.176;6.614;2023-04-15T02:57:08;4.40;99.90
52127;DHT22;38120;53.176;6.614;2023-04-15T02:59:36;4.40;99.90
52127;DHT22;38120;53.176;6.614;2023-04-15T03:02:02;4.30;99.90
52127;DHT22;38120;53.176;6.614;2023-04-15T03:04:28;4.30;99.90
52127;DHT22;38120;53.176;6.614;2023-04-15T03:06:55;4.30;99.90
52127;DHT22;38120;53.176;6.614;2023-04-15T03:09:21;4.30;99.90
52127;DHT22;38120;53.176;6.614;2023-04-15T03:11:47;4.20;99.90
52127;DHT22;38120;53.176;6.614;2023-04-15T03:14:12;4.20;99.90
52127;DHT22;38120;53.176;6.614;2023-04-15T03:16:38;4.10;99.90
52127;DHT22;38120;53.176;6.614;2023-04-15T03:19:04;4.10;99.90
52127;DHT22;38120;53.176;6.614;2023-04-15T03:21:29;4.60;99.90
52127;DHT22;38120;53.176;6.614;2023-04-15T03:23:55;4.10;99.90
52127;DHT22;38120;53.176;6.614;2023-04-15T03:26:28;4.40;99.90
52127;DHT22;38120;53.176;6.614;2023-04-15T03:28:55;4.10;99.90
52127;DHT22;38120;53.176;6.614;2023-04-15T03:31:20;4.00;99.90
52127;DHT22;38120;53.176;6.614;2023-04-15T03:33:46;3.90;99.90
52127;DHT22;38120;53.176;6.614;2023-04-15T03:36:12;3.90;99.90
52127;DHT22;38120;53.176;6.614;2023-04-15T03:38:38;3.90;99.90
52127;DHT22;38120;53.176;6.614;2023-04-15T03:41:03;3.90;99.90
52127;DHT22;38120;53.176;6.614;2023-04-15T03:43:30;3.90;99.90
52127;DHT22;38120;53.176;6.614;2023-04-15T03:45:55;3.80;99.90
52127;DHT22;38120;53.176;6.614;2023-04-15T03:48:21;4.20;99.90
52127;DHT22;38120;53.176;6.614;2023-04-15T03:50:47;4.20;99.90
52127;DHT22;38120;53.176;6.614;2023-04-15T03:53:13;4.40;99.90
52127;DHT22;38120;53.176;6.614;2023-04-15T03:55:39;4.10;99.90
52127;DHT22;38120;53.176;6.614;2023-04-15T03:58:04;3.60;99.90
52127;DHT22;38120;53.176;6.614;2023-04-15T04:00:30;3.60;99.90
52127;DHT22;38120;53.176;6.614;2023-04-15T04:02:56;3.60;99.90
52127;DHT22;38120;53.176;6.614;2023-04-15T04:05:22;3.50;99.90
52127;DHT22;38120;53.176;6.614;2023-04-15T04:07:47;3.60;99.90
52127;DHT22;38120;53.176;6.614;2023-04-15T04:10:13;3.50;99.90
52127;DHT22;38120;53.176;6.614;2023-04-15T04:12:39;3.50;99.90
52127;DHT22;38120;53.176;6.614;2023-04-15T04:15:05;3.40;99.90
52127;DHT22;38120;53.176;6.614;2023-04-15T04:17:31;3.40;99.90
52127;DHT22;38120;53.176;6.614;2023-04-15T04:19:57;3.40;99.90
52127;DHT22;38120;53.176;6.614;2023-04-15T04:22:23;3.30;99.90
52127;DHT22;38120;53.176;6.614;2023-04-15T04:24:49;3.30;99.90
52127;DHT22;38120;53.176;6.614;2023-04-15T04:27:15;3.30;99.90
52127;DHT22;38120;53.176;6.614;2023-04-15T04:29:41;3.30;99.90
52127;DHT22;38120;53.176;6.614;2023-04-15T04:32:07;3.20;99.90
52127;DHT22;38120;53.176;6.614;2023-04-15T04:34:32;3.20;99.90
52127;DHT22;38120;53.176;6.614;2023-04-15T04:36:58;3.20;99.90
52127;DHT22;38120;53.176;6.614;2023-04-15T04:39:24;3.20;99.90
52127;DHT22;38120;53.176;6.614;2023-04-15T04:41:50;3.10;99.90
52127;DHT22;38120;53.176;6.614;2023-04-15T04:44:17;3.20;99.90
52127;DHT22;38120;53.176;6.614;2023-04-15T04:46:42;3.20;99.90
52127;DHT22;38120;53.176;6.614;2023-04-15T04:49:08;3.20;99.90
52127;DHT22;38120;53.176;6.614;2023-04-15T04:51:34;3.20;99.90
52127;DHT22;38120;53.176;6.614;2023-04-15T04:54:00;3.20;99.90
52127;DHT22;38120;53.176;6.614;2023-04-15T04:56:25;3.20;99.90
52127;DHT22;38120;53.176;6.614;2023-04-15T04:58:51;4.70;99.90
52127;DHT22;38120;53.176;6.614;2023-04-15T05:01:18;3.20;99.90
52127;DHT22;38120;53.176;6.614;2023-04-15T05:03:43;3.20;99.90
52127;DHT22;38120;53.176;6.614;2023-04-15T05:06:09;3.50;99.90
52127;DHT22;38120;53.176;6.614;2023-04-15T05:08:35;3.30;99.90
52127;DHT22;38120;53.176;6.614;2023-04-15T05:11:02;3.30;99.90
52127;DHT22;38120;53.176;6.614;2023-04-15T05:13:28;3.30;99.90
52127;DHT22;38120;53.176;6.614;2023-04-15T05:15:55;3.30;99.90
52127;DHT22;38120;53.176;6.614;2023-04-15T05:18:21;3.40;99.90
52127;DHT22;38120;53.176;6.614;2023-04-15T05:20:47;3.30;99.90
52127;DHT22;38120;53.176;6.614;2023-04-15T05:23:15;3.40;99.90
52127;DHT22;38120;53.176;6.614;2023-04-15T05:25:41;3.40;99.90
52127;DHT22;38120;53.176;6.614;2023-04-15T05:28:06;3.50;99.90
52127;DHT22;38120;53.176;6.614;2023-04-15T05:30:32;3.60;99.90
52127;DHT22;38120;53.176;6.614;2023-04-15T05:32:58;3.60;99.90
52127;DHT22;38120;53.176;6.614;2023-04-15T05:35:24;3.70;99.90
52127;DHT22;38120;53.176;6.614;2023-04-15T05:37:50;3.90;99.90
52127;DHT22;38120;53.176;6.614;2023-04-15T05:40:15;4.20;99.90
52127;DHT22;38120;53.176;6.614;2023-04-15T05:42:41;4.30;99.90
52127;DHT22;38120;53.176;6.614;2023-04-15T05:45:07;4.40;99.90
52127;DHT22;38120;53.176;6.614;2023-04-15T05:47:37;4.60;99.90
52127;DHT22;38120;53.176;6.614;2023-04-15T05:50:03;4.80;99.90
52127;DHT22;38120;53.176;6.614;2023-04-15T05:52:30;5.00;99.90
52127;DHT22;38120;53.176;6.614;2023-04-15T05:54:56;5.40;99.90
52127;DHT22;38120;53.176;6.614;2023-04-15T05:57:21;5.30;99.90
52127;DHT22;38120;53.176;6.614;2023-04-15T05:59:48;5.50;99.90
52127;DHT22;38120;53.176;6.614;2023-04-15T06:02:16;5.60;99.90
52127;DHT22;38120;53.176;6.614;2023-04-15T06:04:42;6.00;99.90
52127;DHT22;38120;53.176;6.614;2023-04-15T06:07:08;5.80;99.90
52127;DHT22;38120;53.176;6.614;2023-04-15T06:09:36;5.80;99.90
52127;DHT22;38120;53.176;6.614;2023-04-15T06:12:02;5.90;99.90
52127;DHT22;38120;53.176;6.614;2023-04-15T06:14:28;6.00;99.90
52127;DHT22;38120;53.176;6.614;2023-04-15T06:16:54;6.10;99.90
52127;DHT22;38120;53.176;6.614;2023-04-15T06:19:20;6.20;99.90
52127;DHT22;38120;53.176;6.614;2023-04-15T06:21:45;6.30;99.90
52127;DHT22;38120;53.176;6.614;2023-04-15T06:24:11;6.40;99.90
52127;DHT22;38120;53.176;6.614;2023-04-15T06:26:37;6.50;99.90
52127;DHT22;38120;53.176;6.614;2023-04-15T06:29:03;6.60;99.90
52127;DHT22;38120;53.176;6.614;2023-04-15T06:31:29;6.80;99.90
52127;DHT22;38120;53.176;6.614;2023-04-15T06:33:55;6.80;99.90
52127;DHT22;38120;53.176;6.614;2023-04-15T06:36:20;6.90;99.90
52127;DHT22;38120;53.176;6.614;2023-04-15T06:38:46;7.00;99.90
52127;DHT22;38120;53.176;6.614;2023-04-15T06:41:12;7.00;99.90
52127;DHT22;38120;53.176;6.614;2023-04-15T06:43:38;7.10;99.90
52127;DHT22;38120;53.176;6.614;2023-04-15T06:46:04;7.20;99.90
52127;DHT22;38120;53.176;6.614;2023-04-15T06:48:30;7.40;99.90
52127;DHT22;38120;53.176;6.614;2023-04-15T06:50:55;7.30;99.90
52127;DHT22;38120;53.176;6.614;2023-04-15T06:53:23;7.40;99.90
52127;DHT22;38120;53.176;6.614;2023-04-15T06:55:49;7.50;99.90
52127;DHT22;38120;53.176;6.614;2023-04-15T06:58:15;7.50;99.90
52127;DHT22;38120;53.176;6.614;2023-04-15T07:00:41;7.60;99.90
52127;DHT22;38120;53.176;6.614;2023-04-15T07:03:07;7.60;99.90
52127;DHT22;38120;53.176;6.614;2023-04-15T07:05:35;7.70;99.90
52127;DHT22;38120;53.176;6.614;2023-04-15T07:08:01;7.80;99.90
52127;DHT22;38120;53.176;6.614;2023-04-15T07:10:26;7.70;99.90
52127;DHT22;38120;53.176;6.614;2023-04-15T07:12:52;7.80;99.90
52127;DHT22;38120;53.176;6.614;2023-04-15T07:15:18;7.90;99.90
52127;DHT22;38120;53.176;6.614;2023-04-15T07:17:44;7.90;99.90
52127;DHT22;38120;53.176;6.614;2023-04-15T07:20:10;8.00;99.90
52127;DHT22;38120;53.176;6.614;2023-04-15T07:22:35;8.10;99.90
52127;DHT22;38120;53.176;6.614;2023-04-15T07:25:01;8.10;99.90
52127;DHT22;38120;53.176;6.614;2023-04-15T07:27:27;8.20;99.90
52127;DHT22;38120;53.176;6.614;2023-04-15T07:29:53;8.20;99.90
52127;DHT22;38120;53.176;6.614;2023-04-15T07:32:18;8.30;99.90
52127;DHT22;38120;53.176;6.614;2023-04-15T07:34:44;8.40;99.90
52127;DHT22;38120;53.176;6.614;2023-04-15T07:37:11;8.40;99.90
52127;DHT22;38120;53.176;6.614;2023-04-15T07:39:37;8.40;99.90
52127;DHT22;38120;53.176;6.614;2023-04-15T07:42:03;8.40;99.90
52127;DHT22;38120;53.176;6.614;2023-04-15T07:44:29;8.50;99.90
52127;DHT22;38120;53.176;6.614;2023-04-15T07:47:01;8.50;99.90
52127;DHT22;38120;53.176;6.614;2023-04-15T07:49:27;8.50;99.90
52127;DHT22;38120;53.176;6.614;2023-04-15T07:51:53;8.50;99.90
52127;DHT22;38120;53.176;6.614;2023-04-15T07:54:19;8.70;99.90
52127;DHT22;38120;53.176;6.614;2023-04-15T07:56:45;8.50;99.90
52127;DHT22;38120;53.176;6.614;2023-04-15T07:59:10;8.50;99.90
52127;DHT22;38120;53.176;6.614;2023-04-15T08:01:37;8.40;99.90
52127;DHT22;38120;53.176;6.614;2023-04-15T08:04:03;8.30;99.90
52127;DHT22;38120;53.176;6.614;2023-04-15T08:06:29;8.30;99.90
52127;DHT22;38120;53.176;6.614;2023-04-15T08:08:55;8.30;99.90
52127;DHT22;38120;53.176;6.614;2023-04-15T08:11:21;8.30;99.90
52127;DHT22;38120;53.176;6.614;2023-04-15T08:13:48;8.30;99.90
52127;DHT22;38120;53.176;6.614;2023-04-15T08:16:21;8.40;99.90
52127;DHT22;38120;53.176;6.614;2023-04-15T08:18:48;8.40;99.90
52127;DHT22;38120;53.176;6.614;2023-04-15T08:21:14;8.40;99.90
52127;DHT22;38120;53.176;6.614;2023-04-15T08:23:40;8.40;99.90
52127;DHT22;38120;53.176;6.614;2023-04-15T08:26:07;8.40;99.90
52127;DHT22;38120;53.176;6.614;2023-04-15T08:28:33;8.40;99.90
52127;DHT22;38120;53.176;6.614;2023-04-15T08:30:59;8.40;99.90
52127;DHT22;38120;53.176;6.614;2023-04-15T08:33:25;8.40;99.90
52127;DHT22;38120;53.176;6.614;2023-04-15T08:35:50;8.40;99.90
52127;DHT22;38120;53.176;6.614;2023-04-15T08:38:16;8.40;99.90
52127;DHT22;38120;53.176;6.614;2023-04-15T08:40:44;8.40;99.90
52127;DHT22;38120;53.176;6.614;2023-04-15T08:43:14;8.40;99.90
52127;DHT22;38120;53.176;6.614;2023-04-15T08:45:43;8.50;99.90
52127;DHT22;38120;53.176;6.614;2023-04-15T08:48:13;8.40;99.90
52127;DHT22;38120;53.176;6.614;2023-04-15T08:50:41;8.30;99.90
52127;DHT22;38120;53.176;6.614;2023-04-15T08:53:08;8.20;99.90
52127;DHT22;38120;53.176;6.614;2023-04-15T08:55:35;8.30;99.90
52127;DHT22;38120;53.176;6.614;2023-04-15T08:58:05;8.20;99.90
52127;DHT22;38120;53.176;6.614;2023-04-15T09:00:31;8.20;99.90
52127;DHT22;38120;53.176;6.614;2023-04-15T09:02:58;8.20;99.90
52127;DHT22;38120;53.176;6.614;2023-04-15T09:05:24;8.40;99.90
52127;DHT22;38120;53.176;6.614;2023-04-15T09:07:50;8.60;99.90
52127;DHT22;38120;53.176;6.614;2023-04-15T09:10:16;8.60;99.90
52127;DHT22;38120;53.176;6.614;2023-04-15T09:12:42;8.60;99.90
52127;DHT22;38120;53.176;6.614;2023-04-15T09:15:10;8.60;99.90
52127;DHT22;38120;53.176;6.614;2023-04-15T09:17:42;8.60;99.90
52127;DHT22;38120;53.176;6.614;2023-04-15T09:20:15;8.70;99.90
52127;DHT22;38120;53.176;6.614;2023-04-15T09:22:45;8.70;99.90
52127;DHT22;38120;53.176;6.614;2023-04-15T09:27:48;8.70;99.90
52127;DHT22;38120;53.176;6.614;2023-04-15T09:30:14;8.90;99.90
52127;DHT22;38120;53.176;6.614;2023-04-15T09:33:07;8.90;99.90
52127;DHT22;38120;53.176;6.614;2023-04-15T09:35:35;9.10;99.90
52127;DHT22;38120;53.176;6.614;2023-04-15T09:38:10;9.30;99.90
52127;DHT22;38120;53.176;6.614;2023-04-15T09:40:40;9.50;99.90
52127;DHT22;38120;53.176;6.614;2023-04-15T09:43:08;9.40;99.90
52127;DHT22;38120;53.176;6.614;2023-04-15T09:45:35;9.30;99.90
52127;DHT22;38120;53.176;6.614;2023-04-15T09:48:14;9.30;99.90
52127;DHT22;38120;53.176;6.614;2023-04-15T09:50:41;9.30;99.90
52127;DHT22;38120;53.176;6.614;2023-04-15T09:53:10;9.20;99.90
52127;DHT22;38120;53.176;6.614;2023-04-15T09:55:37;9.40;99.90
52127;DHT22;38120;53.176;6.614;2023-04-15T09:58:08;9.50;99.90
52127;DHT22;38120;53.176;6.614;2023-04-15T10:00:35;9.40;99.90
52127;DHT22;38120;53.176;6.614;2023-04-15T10:03:04;9.50;99.90
52127;DHT22;38120;53.176;6.614;2023-04-15T10:05:30;9.50;99.90
52127;DHT22;38120;53.176;6.614;2023-04-15T10:07:57;9.50;99.90
52127;DHT22;38120;53.176;6.614;2023-04-15T10:10:23;9.60;99.90
52127;DHT22;38120;53.176;6.614;2023-04-15T10:12:50;9.60;99.90
52127;DHT22;38120;53.176;6.614;2023-04-15T10:15:17;9.60;99.90
52127;DHT22;38120;53.176;6.614;2023-04-15T10:17:44;9.50;99.90
52127;DHT22;38120;53.176;6.614;2023-04-15T10:20:10;9.40;99.90
52127;DHT22;38120;53.176;6.614;2023-04-15T10:22:37;9.40;99.90
52127;DHT22;38120;53.176;6.614;2023-04-15T10:25:04;9.50;99.90
52127;DHT22;38120;53.176;6.614;2023-04-15T10:27:30;9.50;99.90
52127;DHT22;38120;53.176;6.614;2023-04-15T10:29:57;9.50;99.90
52127;DHT22;38120;53.176;6.614;2023-04-15T10:32:25;9.40;99.90
52127;DHT22;38120;53.176;6.614;2023-04-15T10:34:51;9.40;99.90
52127;DHT22;38120;53.176;6.614;2023-04-15T10:37:32;9.20;99.90
52127;DHT22;38120;53.176;6.614;2023-04-15T10:39:58;9.20;99.90
52127;DHT22;38120;53.176;6.614;2023-04-15T10:42:23;9.10;99.90
52127;DHT22;38120;53.176;6.614;2023-04-15T10:44:58;9.10;99.90
52127;DHT22;38120;53.176;6.614;2023-04-15T10:47:24;9.10;99.90
52127;DHT22;38120;53.176;6.614;2023-04-15T10:49:54;9.20;99.90
52127;DHT22;38120;53.176;6.614;2023-04-15T10:52:26;9.30;99.90
52127;DHT22;38120;53.176;6.614;2023-04-15T10:57:42;9.20;99.90
52127;DHT22;38120;53.176;6.614;2023-04-15T11:05:03;9.40;99.90
52127;DHT22;38120;53.176;6.614;2023-04-15T11:18:16;9.20;99.90
52127;DHT22;38120;53.176;6.614;2023-04-15T11:20:49;9.20;99.90
52127;DHT22;38120;53.176;6.614;2023-04-15T11:23:58;9.30;99.90
52127;DHT22;38120;53.176;6.614;2023-04-15T11:26:08;9.40;99.90
52127;DHT22;38120;53.176;6.614;2023-04-15T11:28:37;9.50;99.90
52127;DHT22;38120;53.176;6.614;2023-04-15T11:31:11;9.60;99.90
52127;DHT22;38120;53.176;6.614;2023-04-15T11:33:44;9.70;99.90
52127;DHT22;38120;53.176;6.614;2023-04-15T11:36:10;9.60;99.90
52127;DHT22;38120;53.176;6.614;2023-04-15T11:38:36;9.80;99.90
52127;DHT22;38120;53.176;6.614;2023-04-15T11:41:02;9.70;99.90
52127;DHT22;38120;53.176;6.614;2023-04-15T11:43:31;9.70;99.90
52127;DHT22;38120;53.176;6.614;2023-04-15T11:46:00;9.80;99.90
52127;DHT22;38120;53.176;6.614;2023-04-15T11:48:28;9.70;99.90
52127;DHT22;38120;53.176;6.614;2023-04-15T11:51:06;9.50;99.90
52127;DHT22;38120;53.176;6.614;2023-04-15T11:53:46;9.50;99.90
52127;DHT22;38120;53.176;6.614;2023-04-15T11:56:23;9.40;99.90
52127;DHT22;38120;53.176;6.614;2023-04-15T11:58:56;9.50;99.90
52127;DHT22;38120;53.176;6.614;2023-04-15T12:01:34;9.40;99.90
52127;DHT22;38120;53.176;6.614;2023-04-15T12:04:00;9.40;99.90
52127;DHT22;38120;53.176;6.614;2023-04-15T12:06:32;9.40;99.90
52127;DHT22;38120;53.176;6.614;2023-04-15T12:11:32;9.30;99.90
52127;DHT22;38120;53.176;6.614;2023-04-15T12:16:28;9.40;99.90
52127;DHT22;38120;53.176;6.614;2023-04-15T12:18:58;9.40;99.90
52127;DHT22;38120;53.176;6.614;2023-04-15T12:21:27;9.40;99.90
52127;DHT22;38120;53.176;6.614;2023-04-15T12:23:55;9.40;99.90
52127;DHT22;38120;53.176;6.614;2023-04-15T12:26:29;9.40;99.90
52127;DHT22;38120;53.176;6.614;2023-04-15T12:29:00;9.50;99.90
52127;DHT22;38120;53.176;6.614;2023-04-15T12:31:26;9.60;99.90
52127;DHT22;38120;53.176;6.614;2023-04-15T12:33:56;9.50;99.90
52127;DHT22;38120;53.176;6.614;2023-04-15T12:36:22;9.40;99.90
52127;DHT22;38120;53.176;6.614;2023-04-15T12:38:49;9.40;99.90
52127;DHT22;38120;53.176;6.614;2023-04-15T12:41:15;9.20;99.90
52127;DHT22;38120;53.176;6.614;2023-04-15T12:43:43;9.20;99.90
52127;DHT22;38120;53.176;6.614;2023-04-15T12:46:09;9.20;99.90
52127;DHT22;38120;53.176;6.614;2023-04-15T12:48:35;9.00;99.90
52127;DHT22;38120;53.176;6.614;2023-04-15T12:51:01;9.10;99.90
52127;DHT22;38120;53.176;6.614;2023-04-15T12:53:27;9.00;99.90
52127;DHT22;38120;53.176;6.614;2023-04-15T12:55:53;9.20;99.90
52127;DHT22;38120;53.176;6.614;2023-04-15T12:58:19;9.10;99.90
52127;DHT22;38120;53.176;6.614;2023-04-15T13:00:45;9.10;99.90
52127;DHT22;38120;53.176;6.614;2023-04-15T13:03:11;9.00;99.90
52127;DHT22;38120;53.176;6.614;2023-04-15T13:05:37;8.90;99.90
52127;DHT22;38120;53.176;6.614;2023-04-15T13:08:04;8.90;99.90
52127;DHT22;38120;53.176;6.614;2023-04-15T13:10:31;8.90;99.90
52127;DHT22;38120;53.176;6.614;2023-04-15T13:12:57;8.80;99.90
52127;DHT22;38120;53.176;6.614;2023-04-15T13:15:23;8.90;99.90
52127;DHT22;38120;53.176;6.614;2023-04-15T13:17:51;8.90;99.90
52127;DHT22;38120;53.176;6.614;2023-04-15T13:20:17;8.90;99.90
52127;DHT22;38120;53.176;6.614;2023-04-15T13:22:42;8.90;99.90
52127;DHT22;38120;53.176;6.614;2023-04-15T13:25:08;8.90;99.90
52127;DHT22;38120;53.176;6.614;2023-04-15T13:27:34;8.80;99.90
52127;DHT22;38120;53.176;6.614;2023-04-15T13:30:00;8.80;99.90
52127;DHT22;38120;53.176;6.614;2023-04-15T13:32:26;8.80;99.90
52127;DHT22;38120;53.176;6.614;2023-04-15T13:34:51;8.70;99.90
52127;DHT22;38120;53.176;6.614;2023-04-15T13:37:17;8.80;99.90
52127;DHT22;38120;53.176;6.614;2023-04-15T13:39:43;8.80;99.90
52127;DHT22;38120;53.176;6.614;2023-04-15T13:42:08;8.80;99.90
52127;DHT22;38120;53.176;6.614;2023-04-15T13:44:34;8.70;99.90
52127;DHT22;38120;53.176;6.614;2023-04-15T13:47:00;8.70;99.90
52127;DHT22;38120;53.176;6.614;2023-04-15T13:49:26;8.70;99.90
52127;DHT22;38120;53.176;6.614;2023-04-15T13:51:51;8.80;99.90
52127;DHT22;38120;53.176;6.614;2023-04-15T13:54:17;8.70;99.90
52127;DHT22;38120;53.176;6.614;2023-04-15T13:56:43;8.80;99.90
52127;DHT22;38120;53.176;6.614;2023-04-15T13:59:09;8.70;99.90
52127;DHT22;38120;53.176;6.614;2023-04-15T14:01:35;8.70;99.90
52127;DHT22;38120;53.176;6.614;2023-04-15T14:04:00;8.80;99.90
52127;DHT22;38120;53.176;6.614;2023-04-15T14:06:29;8.70;99.90
52127;DHT22;38120;53.176;6.614;2023-04-15T14:08:58;8.70;99.90
52127;DHT22;38120;53.176;6.614;2023-04-15T14:11:23;8.60;99.90
52127;DHT22;38120;53.176;6.614;2023-04-15T14:13:49;8.70;99.90
52127;DHT22;38120;53.176;6.614;2023-04-15T14:16:15;8.70;99.90
52127;DHT22;38120;53.176;6.614;2023-04-15T14:18:42;8.70;99.90
52127;DHT22;38120;53.176;6.614;2023-04-15T14:21:08;8.70;99.90
52127;DHT22;38120;53.176;6.614;2023-04-15T14:23:34;8.70;99.90
52127;DHT22;38120;53.176;6.614;2023-04-15T14:26:00;8.60;99.90
52127;DHT22;38120;53.176;6.614;2023-04-15T14:28:32;8.60;99.90
52127;DHT22;38120;53.176;6.614;2023-04-15T14:30:57;8.60;99.90
52127;DHT22;38120;53.176;6.614;2023-04-15T14:33:24;8.60;99.90
52127;DHT22;38120;53.176;6.614;2023-04-15T14:35:50;8.50;99.90
52127;DHT22;38120;53.176;6.614;2023-04-15T14:38:16;8.60;99.90
52127;DHT22;38120;53.176;6.614;2023-04-15T14:40:41;8.60;99.90
52127;DHT22;38120;53.176;6.614;2023-04-15T14:43:07;8.60;99.90
52127;DHT22;38120;53.176;6.614;2023-04-15T14:45:33;8.50;99.90
52127;DHT22;38120;53.176;6.614;2023-04-15T14:47:59;8.40;99.90
52127;DHT22;38120;53.176;6.614;2023-04-15T14:50:25;8.40;99.90
52127;DHT22;38120;53.176;6.614;2023-04-15T14:52:51;8.40;99.90
52127;DHT22;38120;53.176;6.614;2023-04-15T14:55:17;8.40;99.90
52127;DHT22;38120;53.176;6.614;2023-04-15T14:57:43;8.40;99.90
52127;DHT22;38120;53.176;6.614;2023-04-15T15:00:09;8.30;99.90
52127;DHT22;38120;53.176;6.614;2023-04-15T15:02:37;8.40;99.90
52127;DHT22;38120;53.176;6.614;2023-04-15T15:05:03;8.30;99.90
52127;DHT22;38120;53.176;6.614;2023-04-15T15:07:29;8.20;99.90
52127;DHT22;38120;53.176;6.614;2023-04-15T15:09:54;8.30;99.90
52127;DHT22;38120;53.176;6.614;2023-04-15T15:12:21;8.20;99.90
52127;DHT22;38120;53.176;6.614;2023-04-15T15:14:49;8.20;99.90
52127;DHT22;38120;53.176;6.614;2023-04-15T15:17:15;8.20;99.90
52127;DHT22;38120;53.176;6.614;2023-04-15T15:19:41;8.20;99.90
52127;DHT22;38120;53.176;6.614;2023-04-15T15:22:06;8.20;99.90
52127;DHT22;38120;53.176;6.614;2023-04-15T15:24:32;8.20;99.90
52127;DHT22;38120;53.176;6.614;2023-04-15T15:26:58;8.20;99.90
52127;DHT22;38120;53.176;6.614;2023-04-15T15:29:24;8.20;99.90
52127;DHT22;38120;53.176;6.614;2023-04-15T15:31:53;8.10;99.90
52127;DHT22;38120;53.176;6.614;2023-04-15T15:34:18;8.20;99.90
52127;DHT22;38120;53.176;6.614;2023-04-15T15:36:44;8.20;99.90
52127;DHT22;38120;53.176;6.614;2023-04-15T15:39:10;8.20;99.90
52127;DHT22;38120;53.176;6.614;2023-04-15T15:41:35;9.10;99.90
52127;DHT22;38120;53.176;6.614;2023-04-15T15:44:01;8.10;99.90
52127;DHT22;38120;53.176;6.614;2023-04-15T15:46:27;8.10;99.90
52127;DHT22;38120;53.176;6.614;2023-04-15T15:48:56;8.10;99.90
52127;DHT22;38120;53.176;6.614;2023-04-15T15:51:22;8.10;99.90
52127;DHT22;38120;53.176;6.614;2023-04-15T15:53:48;8.10;99.90
52127;DHT22;38120;53.176;6.614;2023-04-15T15:56:14;8.30;99.90
52127;DHT22;38120;53.176;6.614;2023-04-15T15:58:40;8.10;99.90
52127;DHT22;38120;53.176;6.614;2023-04-15T16:01:09;8.10;99.90
52127;DHT22;38120;53.176;6.614;2023-04-15T16:03:35;8.10;99.90
52127;DHT22;38120;53.176;6.614;2023-04-15T16:06:02;8.10;99.90
52127;DHT22;38120;53.176;6.614;2023-04-15T16:08:27;8.10;99.90